Time;durP1;ratioP1;P1;durP2;ratioP2;P2;SDS_P1;SDS_P2;PMS_P1;PMS_P2;Temp;Humidity;BMP_temperature;BMP_pressure;BME280_temperature;BME280_humidity;BME280_pressure;Samples;Min_cycle;Max_cycle;Signal;HPM_P1;HPM_P2
2023/03/19 00:00:12;;;;;;;26.38;19.35;;;10.60;99.90;;;;;;4959477;28;20117;-63
2023/03/19 00:02:39;;;;;;;25.63;19.08;;;10.60;99.90;;;;;;4979794;28;20061;-63
2023/03/19 00:05:05;;;;;;;24.85;19.35;;;10.60;99.90;;;;;;4966099;28;20092;-63
2023/03/19 00:07:31;;;;;;;22.42;17.92;;;10.60;99.90;;;;;;4955090;28;20217;-63
2023/03/19 00:09:57;;;;;;;24.63;18.02;;;10.60;99.90;;;;;;4948832;28;20050;-63
2023/03/19 00:12:23;;;;;;;22.92;18.33;;;10.60;99.90;;;;;;4954129;28;20050;-63
2023/03/19 00:14:49;;;;;;;25.17;17.67;;;10.60;99.90;;;;;;4958235;28;20489;-63
2023/03/19 00:17:15;;;;;;;25.33;18.65;;;10.60;99.90;;;;;;4951436;28;20061;-63
2023/03/19 00:19:41;;;;;;;23.38;18.27;;;10.60;99.90;;;;;;4937074;28;20050;-64
2023/03/19 00:22:07;;;;;;;23.35;18.25;;;10.60;99.90;;;;;;4954192;28;20054;-63
2023/03/19 00:24:33;;;;;;;21.65;17.63;;;10.50;99.90;;;;;;4974337;28;20047;-63
2023/03/19 00:26:59;;;;;;;26.02;17.92;;;10.50;99.90;;;;;;4954902;28;20050;-63
2023/03/19 00:29:25;;;;;;;23.52;17.77;;;10.50;99.90;;;;;;4971667;28;20046;-63
2023/03/19 00:31:51;;;;;;;26.20;18.67;;;10.50;99.90;;;;;;4948236;28;20101;-63
2023/03/19 00:34:17;;;;;;;26.75;18.83;;;10.50;99.90;;;;;;4952444;28;20518;-63
2023/03/19 00:36:44;;;;;;;24.23;19.15;;;10.50;99.90;;;;;;4955817;28;20058;-63
2023/03/19 00:39:10;;;;;;;25.75;18.50;;;10.50;99.90;;;;;;4947056;28;20038;-63
2023/03/19 00:41:36;;;;;;;21.58;18.13;;;10.50;99.90;;;;;;4930127;28;20148;-63
2023/03/19 00:44:03;;;;;;;26.88;19.83;;;10.50;99.90;;;;;;4957665;28;20054;-63
2023/03/19 00:46:29;;;;;;;23.80;18.85;;;10.50;99.90;;;;;;4962485;28;21029;-63
2023/03/19 00:48:55;;;;;;;24.60;18.73;;;10.40;99.90;;;;;;4938806;28;20042;-63
2023/03/19 00:51:22;;;;;;;25.10;19.73;;;10.50;99.90;;;;;;4980056;28;20050;-62
2023/03/19 00:53:48;;;;;;;26.30;20.83;;;10.50;99.90;;;;;;4944192;28;20405;-63
2023/03/19 00:56:17;;;;;;;24.00;19.40;;;10.50;99.90;;;;;;4960097;28;20532;-63
2023/03/19 00:58:43;;;;;;;25.30;20.30;;;10.50;99.90;;;;;;4958052;28;20050;-63
2023/03/19 01:01:11;;;;;;;24.90;19.30;;;10.50;99.90;;;;;;4954957;28;20043;-63
2023/03/19 01:03:37;;;;;;;28.35;20.40;;;10.50;99.90;;;;;;4959661;28;20050;-63
2023/03/19 01:06:03;;;;;;;26.75;20.50;;;10.50;99.90;;;;;;4957735;28;20140;-63
2023/03/19 01:08:30;;;;;;;27.92;20.17;;;10.50;99.90;;;;;;4971170;28;20042;-62
2023/03/19 01:10:56;;;;;;;27.50;21.60;;;10.50;99.90;;;;;;4948015;28;20126;-63
2023/03/19 01:13:22;;;;;;;24.48;20.48;;;10.50;99.90;;;;;;4953542;28;20050;-63
2023/03/19 01:15:51;;;;;;;29.30;20.45;;;10.50;99.90;;;;;;4947988;28;20050;-62
2023/03/19 01:18:16;;;;;;;23.40;19.48;;;10.50;99.90;;;;;;4964508;28;20102;-63
2023/03/19 01:20:42;;;;;;;25.33;19.20;;;10.50;99.90;;;;;;4953247;28;20118;-63
2023/03/19 01:23:08;;;;;;;30.30;21.05;;;10.50;99.90;;;;;;4981862;28;20477;-63
2023/03/19 01:25:34;;;;;;;25.13;19.65;;;10.50;99.90;;;;;;4962983;28;20131;-63
2023/03/19 01:28:01;;;;;;;26.33;20.77;;;10.50;99.90;;;;;;4962044;28;20367;-63
2023/03/19 01:30:27;;;;;;;25.60;20.27;;;10.50;99.90;;;;;;4933559;28;21020;-63
2023/03/19 01:32:53;;;;;;;25.40;20.02;;;10.50;99.90;;;;;;4936593;28;20213;-63
2023/03/19 01:35:19;;;;;;;26.75;20.92;;;10.50;99.90;;;;;;4954075;28;20097;-62
2023/03/19 01:37:45;;;;;;;27.40;20.42;;;10.50;99.90;;;;;;4915650;28;20572;-63
2023/03/19 01:40:13;;;;;;;25.58;20.17;;;10.40;99.90;;;;;;4918700;28;20066;-63
2023/03/19 01:43:06;;;;;;;26.48;19.95;;;10.40;99.90;;;;;;4934529;28;20043;-63
2023/03/19 01:45:35;;;;;;;23.60;19.35;;;10.40;99.90;;;;;;4935936;28;20505;-63
2023/03/19 01:48:01;;;;;;;27.35;19.67;;;10.40;99.90;;;;;;4919135;28;20057;-63
2023/03/19 01:50:40;;;;;;;24.48;20.20;;;10.40;99.90;;;;;;4937753;28;20058;-63
2023/03/19 01:53:08;;;;;;;23.02;19.38;;;10.40;99.90;;;;;;4936726;28;20047;-63
2023/03/19 01:55:34;;;;;;;23.08;19.25;;;10.40;99.90;;;;;;4931633;28;20495;-63
2023/03/19 01:58:01;;;;;;;27.05;20.27;;;10.40;99.90;;;;;;4936447;28;20513;-63
2023/03/19 02:00:28;;;;;;;22.85;19.05;;;10.40;99.90;;;;;;4935416;28;20046;-63
2023/03/19 02:02:59;;;;;;;24.92;19.50;;;10.40;99.90;;;;;;4953905;28;20121;-63
2023/03/19 02:05:27;;;;;;;26.95;19.95;;;10.40;99.90;;;;;;4931036;28;20043;-62
2023/03/19 02:07:58;;;;;;;23.65;19.50;;;10.40;99.90;;;;;;4948328;28;20046;-63
2023/03/19 02:10:25;;;;;;;22.90;18.70;;;10.40;99.90;;;;;;4930583;28;20102;-63
2023/03/19 02:12:51;;;;;;;24.23;18.75;;;10.40;99.90;;;;;;4930400;28;20050;-63
2023/03/19 02:15:17;;;;;;;24.45;18.83;;;10.40;99.90;;;;;;4933252;28;20078;-63
2023/03/19 02:17:44;;;;;;;23.60;17.50;;;10.40;99.90;;;;;;4935314;28;20074;-63
2023/03/19 02:20:20;;;;;;;22.02;16.95;;;10.40;99.90;;;;;;4936483;28;20057;-63
2023/03/19 02:22:53;;;;;;;20.10;15.63;;;10.40;99.90;;;;;;4935175;28;20466;-62
2023/03/19 02:25:28;;;;;;;17.98;14.45;;;10.40;99.90;;;;;;4927363;28;20080;-63
2023/03/19 02:27:54;;;;;;;16.10;13.48;;;10.50;99.90;;;;;;4952097;28;20065;-63
2023/03/19 02:30:26;;;;;;;19.05;13.80;;;10.40;99.90;;;;;;4952563;28;20054;-63
2023/03/19 02:32:52;;;;;;;16.77;13.90;;;10.40;99.90;;;;;;4956051;28;20047;-62
2023/03/19 02:35:18;;;;;;;18.55;14.18;;;10.40;99.90;;;;;;4951999;28;20148;-63
2023/03/19 02:37:45;;;;;;;17.58;13.43;;;10.40;99.90;;;;;;4953831;28;20049;-63
2023/03/19 02:40:14;;;;;;;19.35;14.23;;;10.40;99.90;;;;;;4969105;28;20054;-63
2023/03/19 02:42:40;;;;;;;18.75;14.55;;;10.40;99.90;;;;;;4953110;28;20197;-63
2023/03/19 02:45:07;;;;;;;19.77;15.10;;;10.40;99.90;;;;;;4936438;28;20160;-63
2023/03/19 02:47:33;;;;;;;17.60;14.05;;;10.40;99.90;;;;;;4939792;28;22164;-62
2023/03/19 02:49:59;;;;;;;23.30;14.30;;;10.30;99.90;;;;;;4933786;28;20050;-63
2023/03/19 02:52:25;;;;;;;20.02;14.20;;;10.40;99.90;;;;;;4956154;28;20046;-63
2023/03/19 02:54:51;;;;;;;19.20;14.00;;;10.30;99.90;;;;;;4909895;28;20524;-63
2023/03/19 02:57:17;;;;;;;17.50;13.82;;;10.30;99.90;;;;;;4955854;28;20524;-63
2023/03/19 02:59:43;;;;;;;17.02;13.52;;;10.30;99.90;;;;;;4972014;28;20054;-62
2023/03/19 03:02:09;;;;;;;21.60;14.65;;;10.30;99.90;;;;;;4955608;28;20046;-63
2023/03/19 03:04:36;;;;;;;16.92;13.07;;;10.30;99.90;;;;;;4937264;28;20053;-62
2023/03/19 03:07:03;;;;;;;18.00;13.27;;;10.30;99.90;;;;;;4975466;28;20049;-63
2023/03/19 03:09:29;;;;;;;15.55;12.00;;;10.30;99.90;;;;;;4957488;28;20638;-63
2023/03/19 03:11:56;;;;;;;14.85;12.38;;;10.30;99.90;;;;;;4949504;28;20129;-63
2023/03/19 03:14:21;;;;;;;14.77;12.48;;;10.30;99.90;;;;;;4955165;28;20046;-63
2023/03/19 03:16:47;;;;;;;15.13;11.23;;;10.30;99.90;;;;;;4952405;28;20049;-62
2023/03/19 03:19:13;;;;;;;12.70;11.05;;;10.30;99.90;;;;;;4955755;28;20496;-63
2023/03/19 03:21:40;;;;;;;14.35;11.65;;;10.30;99.90;;;;;;4937301;28;20057;-63
2023/03/19 03:24:06;;;;;;;14.80;10.95;;;10.30;99.90;;;;;;4939582;28;20057;-62
2023/03/19 03:26:33;;;;;;;13.07;10.90;;;10.30;99.90;;;;;;4956605;28;20105;-62
2023/03/19 03:28:59;;;;;;;13.30;10.25;;;10.30;99.90;;;;;;4939764;28;20038;-62
2023/03/19 03:31:25;;;;;;;12.25;10.35;;;10.20;99.90;;;;;;4957711;28;20042;-62
2023/03/19 03:33:51;;;;;;;13.27;10.20;;;10.20;99.90;;;;;;4954434;28;20046;-63
2023/03/19 03:36:17;;;;;;;14.55;10.52;;;10.20;99.90;;;;;;4942771;28;20046;-62
2023/03/19 03:38:44;;;;;;;12.85;10.18;;;10.20;99.90;;;;;;4959535;28;20128;-63
2023/03/19 03:41:10;;;;;;;12.13;9.48;;;10.20;99.90;;;;;;4942888;28;20493;-63
2023/03/19 03:43:36;;;;;;;13.40;9.80;;;10.20;99.90;;;;;;4933819;28;20169;-63
2023/03/19 03:46:02;;;;;;;11.13;9.02;;;10.20;99.90;;;;;;4955773;28;20050;-63
2023/03/19 03:48:27;;;;;;;13.48;9.70;;;10.20;99.90;;;;;;4956278;28;20046;-63
2023/03/19 03:50:53;;;;;;;13.05;9.10;;;10.20;99.90;;;;;;4971727;28;20053;-63
2023/03/19 03:53:19;;;;;;;13.55;9.50;;;10.20;99.90;;;;;;4951237;28;20445;-63
2023/03/19 03:55:45;;;;;;;10.90;8.73;;;10.20;99.90;;;;;;4956420;28;20152;-63
2023/03/19 03:58:11;;;;;;;14.20;9.15;;;10.20;99.90;;;;;;4952932;28;20093;-63
2023/03/19 04:00:38;;;;;;;11.57;8.60;;;10.20;99.90;;;;;;4922793;28;20062;-63
2023/03/19 04:03:04;;;;;;;11.52;8.90;;;10.20;99.90;;;;;;4961942;28;20093;-63
2023/03/19 04:05:30;;;;;;;11.00;8.57;;;10.20;99.90;;;;;;4943268;28;20078;-63
2023/03/19 04:07:56;;;;;;;10.48;8.55;;;10.20;99.90;;;;;;4964594;28;20046;-62
2023/03/19 04:10:22;;;;;;;10.85;8.48;;;10.20;99.90;;;;;;4966794;28;20574;-62
2023/03/19 04:12:48;;;;;;;10.05;7.95;;;10.30;99.90;;;;;;4966856;28;20473;-63
2023/03/19 04:15:15;;;;;;;11.05;8.00;;;10.20;99.90;;;;;;4948680;28;20078;-63
2023/03/19 04:17:41;;;;;;;11.40;8.20;;;10.20;99.90;;;;;;4956679;28;22576;-62
2023/03/19 04:20:08;;;;;;;12.32;8.60;;;10.20;99.90;;;;;;4958449;28;20533;-63
2023/03/19 04:22:34;;;;;;;10.75;8.93;;;10.20;99.90;;;;;;4965452;28;20049;-63
2023/03/19 04:25:00;;;;;;;11.82;7.40;;;10.20;99.90;;;;;;4950352;28;20053;-63
2023/03/19 04:27:26;;;;;;;8.63;7.57;;;10.20;99.90;;;;;;4967368;28;20062;-63
2023/03/19 04:29:51;;;;;;;15.68;8.00;;;10.20;99.90;;;;;;4966331;28;20050;-63
2023/03/19 04:32:17;;;;;;;8.77;7.88;;;10.20;99.90;;;;;;4956601;28;20046;-63
2023/03/19 04:34:43;;;;;;;11.18;7.72;;;10.20;99.90;;;;;;4927854;28;20050;-63
2023/03/19 04:37:09;;;;;;;8.38;7.47;;;10.20;99.90;;;;;;4954748;28;20104;-63
2023/03/19 04:39:36;;;;;;;9.70;7.90;;;10.20;99.90;;;;;;4958529;28;20857;-62
2023/03/19 04:42:03;;;;;;;11.00;8.02;;;10.20;99.90;;;;;;4955433;28;20073;-63
2023/03/19 04:44:29;;;;;;;9.65;7.65;;;10.20;99.90;;;;;;4951864;28;20050;-63
2023/03/19 04:46:55;;;;;;;11.00;7.60;;;10.20;99.90;;;;;;4951574;28;20042;-63
2023/03/19 04:49:22;;;;;;;10.07;7.40;;;10.20;99.90;;;;;;4952581;28;20086;-63
2023/03/19 04:51:47;;;;;;;9.25;7.03;;;10.10;99.90;;;;;;4938381;28;20140;-63
2023/03/19 04:54:13;;;;;;;8.05;6.93;;;10.20;99.90;;;;;;4956059;28;20097;-63
2023/03/19 04:56:39;;;;;;;9.18;7.50;;;10.20;99.90;;;;;;4969846;28;20050;-63
2023/03/19 04:59:05;;;;;;;11.32;7.53;;;10.10;99.90;;;;;;4939140;28;20053;-63
2023/03/19 05:01:31;;;;;;;8.75;7.32;;;10.20;99.90;;;;;;4954639;28;20046;-63
2023/03/19 05:03:57;;;;;;;9.23;7.20;;;10.20;99.90;;;;;;4965684;28;20070;-63
2023/03/19 05:06:23;;;;;;;9.73;7.45;;;10.20;99.90;;;;;;4933194;28;20046;-62
2023/03/19 05:08:49;;;;;;;9.35;7.03;;;10.20;99.90;;;;;;4954186;28;20061;-63
2023/03/19 05:11:15;;;;;;;9.05;7.47;;;10.20;99.90;;;;;;4955250;28;20160;-63
2023/03/19 05:13:41;;;;;;;9.52;7.18;;;10.20;99.90;;;;;;4935760;28;20080;-62
2023/03/19 05:16:08;;;;;;;9.70;8.13;;;10.10;99.90;;;;;;4955607;28;20050;-63
2023/03/19 05:18:34;;;;;;;11.88;8.07;;;10.20;99.90;;;;;;4945540;28;20050;-63
2023/03/19 05:20:59;;;;;;;12.25;8.40;;;10.10;99.90;;;;;;4954066;28;20039;-63
2023/03/19 05:23:25;;;;;;;12.05;8.40;;;10.10;99.90;;;;;;4955021;28;20065;-63
2023/03/19 05:25:51;;;;;;;12.23;9.95;;;10.10;99.90;;;;;;4933223;28;20517;-62
2023/03/19 05:28:17;;;;;;;12.52;9.75;;;10.10;99.90;;;;;;4969251;28;20183;-63
2023/03/19 05:30:43;;;;;;;11.50;9.65;;;10.10;99.90;;;;;;4954183;28;20081;-62
2023/03/19 05:33:09;;;;;;;14.65;10.02;;;10.10;99.90;;;;;;4946538;28;20072;-62
2023/03/19 05:35:36;;;;;;;14.05;10.10;;;10.10;99.90;;;;;;4954079;28;20443;-62
2023/03/19 05:38:02;;;;;;;15.52;11.05;;;10.10;99.90;;;;;;4937933;28;20058;-62
2023/03/19 05:40:28;;;;;;;15.23;11.27;;;10.00;99.90;;;;;;4956761;28;20869;-63
2023/03/19 05:42:54;;;;;;;19.15;12.43;;;10.00;99.90;;;;;;4939335;28;20054;-63
2023/03/19 05:45:20;;;;;;;15.02;10.80;;;9.90;99.90;;;;;;4967185;28;20050;-63
2023/03/19 05:47:49;;;;;;;12.30;9.95;;;9.90;99.90;;;;;;4955523;28;20421;-62
2023/03/19 05:50:16;;;;;;;13.23;9.55;;;9.90;99.90;;;;;;4936022;28;20164;-63
2023/03/19 05:52:42;;;;;;;12.75;10.50;;;9.90;99.90;;;;;;4955495;28;20476;-63
2023/03/19 05:55:09;;;;;;;13.38;10.27;;;9.80;99.90;;;;;;4972342;28;20117;-63
2023/03/19 05:57:35;;;;;;;12.57;10.02;;;9.80;99.90;;;;;;4956737;28;20072;-63
2023/03/19 06:00:01;;;;;;;15.70;10.40;;;9.70;99.90;;;;;;4947353;28;20042;-63
2023/03/19 06:02:26;;;;;;;12.50;10.10;;;9.80;99.90;;;;;;4948555;28;20046;-63
2023/03/19 06:04:52;;;;;;;12.57;9.50;;;9.70;99.90;;;;;;4966568;28;20061;-63
2023/03/19 06:07:18;;;;;;;12.80;9.00;;;9.60;99.90;;;;;;4968115;28;20050;-63
2023/03/19 06:09:44;;;;;;;12.90;8.85;;;9.60;99.90;;;;;;4965707;28;20080;-63
2023/03/19 06:12:10;;;;;;;12.15;8.25;;;9.50;99.90;;;;;;4959234;28;20042;-63
2023/03/19 06:14:36;;;;;;;10.60;8.50;;;9.50;99.90;;;;;;4954897;28;20478;-63
2023/03/19 06:17:02;;;;;;;12.15;8.20;;;9.50;99.90;;;;;;4940888;28;20046;-63
2023/03/19 06:19:28;;;;;;;9.45;7.80;;;9.50;99.90;;;;;;4947172;28;20785;-63
2023/03/19 06:21:54;;;;;;;10.93;8.20;;;9.40;99.90;;;;;;4967062;28;20046;-63
2023/03/19 06:24:19;;;;;;;11.00;8.60;;;9.40;99.90;;;;;;4968341;28;20050;-63
2023/03/19 06:26:46;;;;;;;10.93;8.02;;;9.40;99.90;;;;;;4948789;28;20070;-63
2023/03/19 06:29:12;;;;;;;14.23;7.97;;;9.40;99.90;;;;;;4959102;28;20046;-63
2023/03/19 06:31:40;;;;;;;13.05;8.18;;;9.40;99.90;;;;;;4945097;28;20370;-63
2023/03/19 06:34:06;;;;;;;9.75;7.70;;;9.40;99.90;;;;;;4964172;28;20038;-63
2023/03/19 06:36:32;;;;;;;9.52;8.52;;;9.40;99.90;;;;;;4942366;28;20074;-63
2023/03/19 06:38:58;;;;;;;10.00;8.23;;;9.50;99.90;;;;;;4962671;28;20051;-63
2023/03/19 06:41:24;;;;;;;14.70;9.13;;;9.40;99.90;;;;;;4962172;28;20043;-63
2023/03/19 06:43:50;;;;;;;11.20;8.57;;;9.40;99.90;;;;;;4962860;28;20059;-63
2023/03/19 06:46:16;;;;;;;12.63;8.32;;;9.40;99.90;;;;;;4961511;28;20046;-63
2023/03/19 06:48:41;;;;;;;10.40;8.70;;;9.50;99.90;;;;;;4954525;28;20398;-63
2023/03/19 06:51:07;;;;;;;12.90;9.48;;;9.40;99.90;;;;;;4932434;28;20050;-63
2023/03/19 06:53:33;;;;;;;12.43;9.20;;;9.50;99.90;;;;;;4962531;28;20062;-63
2023/03/19 06:55:59;;;;;;;10.73;8.77;;;9.40;99.90;;;;;;4963207;28;20517;-63
2023/03/19 06:58:25;;;;;;;11.20;8.70;;;9.40;99.90;;;;;;4964419;28;20097;-63
2023/03/19 07:00:51;;;;;;;11.23;9.45;;;9.50;99.90;;;;;;4964103;28;20066;-63
2023/03/19 07:03:17;;;;;;;12.65;9.00;;;9.50;99.90;;;;;;4964318;28;20062;-63
2023/03/19 07:05:43;;;;;;;11.30;8.48;;;9.50;99.90;;;;;;4955418;28;20738;-63
2023/03/19 07:08:10;;;;;;;11.68;9.02;;;9.50;99.90;;;;;;4963471;28;20166;-63
2023/03/19 07:10:39;;;;;;;12.57;8.98;;;9.50;99.90;;;;;;4964985;28;20502;-63
2023/03/19 07:13:06;;;;;;;11.13;8.50;;;9.50;99.90;;;;;;4964917;28;20181;-63
2023/03/19 07:15:32;;;;;;;11.50;8.18;;;9.50;99.90;;;;;;4957634;28;20437;-63
2023/03/19 07:17:58;;;;;;;10.77;8.90;;;9.50;99.90;;;;;;4960406;28;20047;-63
2023/03/19 07:20:24;;;;;;;11.45;8.73;;;9.50;99.90;;;;;;4962232;28;20109;-63
2023/03/19 07:22:50;;;;;;;14.45;9.30;;;9.60;99.90;;;;;;4952003;28;20047;-63
2023/03/19 07:25:16;;;;;;;12.32;9.20;;;9.60;99.90;;;;;;4954577;28;20061;-63
2023/03/19 07:27:43;;;;;;;12.55;9.35;;;9.60;99.90;;;;;;4957277;28;20433;-63
2023/03/19 07:30:10;;;;;;;13.43;9.50;;;9.60;99.90;;;;;;4946489;28;20485;-63
2023/03/19 07:32:37;;;;;;;12.35;9.88;;;9.60;99.90;;;;;;4962428;28;20058;-64
2023/03/19 07:35:04;;;;;;;13.27;10.07;;;9.60;99.90;;;;;;4964670;28;20503;-64
2023/03/19 07:37:31;;;;;;;12.93;10.30;;;9.70;99.90;;;;;;4963930;28;20049;-63
2023/03/19 07:39:57;;;;;;;13.60;10.65;;;9.70;99.90;;;;;;4949969;28;20049;-64
2023/03/19 07:42:22;;;;;;;14.85;11.23;;;9.80;99.90;;;;;;4962273;28;20400;-63
2023/03/19 07:44:48;;;;;;;16.00;11.55;;;9.80;99.90;;;;;;4961211;28;20054;-63
2023/03/19 07:47:14;;;;;;;16.25;10.65;;;9.80;99.90;;;;;;4962316;28;20085;-63
2023/03/19 07:49:40;;;;;;;15.63;12.05;;;9.90;99.90;;;;;;4947247;28;20505;-63
2023/03/19 07:52:06;;;;;;;18.33;12.65;;;9.90;99.90;;;;;;4965642;28;20089;-63
2023/03/19 07:54:32;;;;;;;16.73;11.95;;;10.00;99.90;;;;;;4965013;28;20538;-63
2023/03/19 07:56:58;;;;;;;16.92;12.30;;;10.10;99.90;;;;;;4962729;28;21045;-63
2023/03/19 07:59:24;;;;;;;18.05;13.85;;;10.10;99.90;;;;;;4964286;28;20050;-64
2023/03/19 08:01:50;;;;;;;18.27;13.60;;;10.20;99.90;;;;;;4925131;28;20042;-64
2023/03/19 08:04:16;;;;;;;18.10;13.82;;;10.20;99.90;;;;;;4961444;28;20493;-63
2023/03/19 08:06:42;;;;;;;19.83;14.25;;;10.30;99.90;;;;;;4956454;28;20050;-63
2023/03/19 08:09:08;;;;;;;18.80;14.43;;;10.30;99.90;;;;;;4965692;28;20125;-63
2023/03/19 08:11:34;;;;;;;17.60;13.90;;;10.30;99.90;;;;;;4950619;28;20049;-63
2023/03/19 08:14:00;;;;;;;21.25;14.50;;;10.40;99.90;;;;;;4965843;28;20046;-63
2023/03/19 08:16:26;;;;;;;17.08;13.80;;;10.40;99.90;;;;;;4963585;28;20046;-64
2023/03/19 08:18:52;;;;;;;19.65;14.38;;;10.40;99.90;;;;;;4970882;28;20054;-63
2023/03/19 08:21:18;;;;;;;19.80;15.13;;;10.50;99.90;;;;;;4972553;28;20056;-63
2023/03/19 08:23:44;;;;;;;22.35;15.88;;;10.60;99.90;;;;;;4962772;28;20046;-63
2023/03/19 08:26:10;;;;;;;23.85;16.65;;;10.70;99.90;;;;;;4960871;28;20065;-63
2023/03/19 08:28:37;;;;;;;25.30;17.17;;;10.90;99.90;;;;;;4960674;28;20112;-63
2023/03/19 08:31:08;;;;;;;23.33;17.42;;;11.00;99.90;;;;;;4961911;28;20505;-64
2023/03/19 08:33:36;;;;;;;22.17;17.13;;;11.00;99.90;;;;;;4942768;28;20062;-63
2023/03/19 08:36:11;;;;;;;21.75;17.20;;;11.00;99.90;;;;;;4959603;28;20050;-63
2023/03/19 08:38:38;;;;;;;25.15;17.67;;;11.00;99.90;;;;;;4956463;28;20065;-63
2023/03/19 08:41:05;;;;;;;23.20;17.58;;;11.00;99.90;;;;;;4964918;28;20040;-63
2023/03/19 08:43:32;;;;;;;25.88;18.35;;;11.10;99.90;;;;;;4963851;28;20057;-63
2023/03/19 08:45:59;;;;;;;23.60;17.63;;;11.10;99.90;;;;;;4934538;28;21027;-63
2023/03/19 08:48:25;;;;;;;24.35;18.13;;;11.10;99.90;;;;;;4956701;28;20520;-63
2023/03/19 08:50:53;;;;;;;26.40;18.92;;;11.20;99.90;;;;;;4948399;28;20133;-63
2023/03/19 08:53:19;;;;;;;24.15;18.23;;;11.30;99.90;;;;;;4936368;28;20069;-63
2023/03/19 08:55:54;;;;;;;23.63;18.10;;;11.30;99.90;;;;;;4925901;28;20050;-64
2023/03/19 08:58:20;;;;;;;20.85;16.90;;;11.30;99.90;;;;;;4951119;28;21316;-63
2023/03/19 09:00:46;;;;;;;21.50;17.20;;;11.40;99.90;;;;;;4950009;28;20050;-63
2023/03/19 09:03:12;;;;;;;21.23;17.13;;;11.40;99.90;;;;;;4943662;28;20560;-63
2023/03/19 09:05:38;;;;;;;21.75;17.10;;;11.40;99.90;;;;;;4953439;28;20046;-63
2023/03/19 09:08:04;;;;;;;21.10;16.33;;;11.40;99.90;;;;;;4952056;28;20054;-63
2023/03/19 09:10:30;;;;;;;19.58;15.85;;;11.50;99.90;;;;;;4937621;28;20096;-63
2023/03/19 09:12:56;;;;;;;20.55;15.45;;;11.50;99.90;;;;;;4924662;28;20042;-63
2023/03/19 09:15:22;;;;;;;19.10;15.90;;;11.60;99.90;;;;;;4913406;28;23807;-63
2023/03/19 09:17:47;;;;;;;20.48;16.30;;;11.60;99.90;;;;;;4950452;28;20042;-63
2023/03/19 09:20:13;;;;;;;20.25;15.48;;;11.70;99.90;;;;;;4936067;28;20070;-63
2023/03/19 09:22:39;;;;;;;20.60;15.57;;;11.80;99.90;;;;;;4931128;28;20053;-63
2023/03/19 09:25:06;;;;;;;20.50;14.73;;;11.80;99.90;;;;;;4952416;28;20125;-63
2023/03/19 09:27:32;;;;;;;19.00;15.30;;;11.80;99.90;;;;;;4951705;28;20190;-63
2023/03/19 09:29:58;;;;;;;20.55;16.42;;;11.80;99.90;;;;;;4951789;28;20054;-63
2023/03/19 09:32:24;;;;;;;21.77;16.38;;;11.80;99.90;;;;;;4953623;28;20057;-63
2023/03/19 09:34:50;;;;;;;20.75;16.77;;;11.70;99.90;;;;;;4972400;28;20064;-63
2023/03/19 09:37:16;;;;;;;22.50;16.13;;;11.70;99.90;;;;;;4957100;28;20416;-63
2023/03/19 09:39:42;;;;;;;18.60;15.20;;;11.60;99.90;;;;;;4956067;28;20073;-63
2023/03/19 09:42:26;;;;;;;22.92;16.15;;;11.60;99.90;;;;;;4954284;28;20062;-63
2023/03/19 09:44:52;;;;;;;20.65;15.68;;;11.70;99.90;;;;;;4950936;28;20050;-63
2023/03/19 09:47:38;;;;;;;20.13;15.70;;;11.70;99.90;;;;;;4958849;28;20042;-63
2023/03/19 09:50:20;;;;;;;20.88;15.88;;;11.80;99.90;;;;;;4955721;28;21037;-63
2023/03/19 09:53:16;;;;;;;21.75;16.17;;;11.90;99.90;;;;;;4953169;28;20050;-63
2023/03/19 09:55:43;;;;;;;20.55;15.50;;;11.90;99.90;;;;;;4946191;28;20453;-63
2023/03/19 09:58:14;;;;;;;18.48;14.70;;;12.00;99.90;;;;;;4956237;28;20039;-63
2023/03/19 10:00:41;;;;;;;17.52;15.00;;;12.00;99.90;;;;;;4957790;28;20042;-63
2023/03/19 10:03:45;;;;;;;17.85;14.68;;;12.00;99.90;;;;;;4957638;28;20054;-63
2023/03/19 10:06:26;;;;;;;19.02;14.95;;;12.00;99.90;;;;;;4953454;28;20065;-63
2023/03/19 10:09:13;;;;;;;19.08;14.38;;;12.10;99.90;;;;;;4953123;28;20129;-63
2023/03/19 10:11:56;;;;;;;16.92;12.55;;;12.10;99.90;;;;;;4953428;28;20101;-63
2023/03/19 10:14:47;;;;;;;18.52;14.50;;;12.10;99.90;;;;;;4956737;28;20034;-64
2023/03/19 10:17:19;;;;;;;17.10;14.23;;;12.20;99.90;;;;;;4963369;28;20254;-62
2023/03/19 10:19:54;;;;;;;19.08;14.02;;;12.20;99.90;;;;;;4950000;28;20953;-63
2023/03/19 10:22:32;;;;;;;19.35;13.73;;;12.20;99.90;;;;;;4956940;28;22385;-63
2023/03/19 10:24:58;;;;;;;16.75;13.02;;;12.30;99.90;;;;;;4949722;28;20073;-63
2023/03/19 10:27:27;;;;;;;17.83;13.10;;;12.30;99.90;;;;;;4946853;28;20088;-63
2023/03/19 10:29:54;;;;;;;19.10;13.30;;;12.30;99.90;;;;;;4952274;28;20058;-63
2023/03/19 10:32:39;;;;;;;17.20;13.05;;;12.30;99.90;;;;;;4928947;28;20046;-63
2023/03/19 10:35:25;;;;;;;18.40;14.52;;;12.40;99.90;;;;;;4952054;28;20042;-63
2023/03/19 10:37:53;;;;;;;23.35;16.38;;;12.50;99.90;;;;;;4948772;28;20650;-63
2023/03/19 10:40:33;;;;;;;22.50;16.42;;;12.50;99.90;;;;;;4929528;28;20574;-63
2023/03/19 10:43:24;;;;;;;21.23;15.82;;;12.70;99.90;;;;;;4948076;28;20120;-63
2023/03/19 10:45:50;;;;;;;21.35;15.50;;;12.70;99.90;;;;;;4949062;28;20046;-63
2023/03/19 10:48:17;;;;;;;23.50;16.58;;;12.80;99.90;;;;;;4910345;28;20111;-63
2023/03/19 10:51:04;;;;;;;22.33;16.48;;;12.80;99.90;;;;;;4955424;28;20050;-63
2023/03/19 10:53:33;;;;;;;22.17;16.52;;;12.80;99.90;;;;;;4941353;28;20138;-63
2023/03/19 10:56:17;;;;;;;24.52;18.52;;;12.70;99.90;;;;;;4952835;28;20502;-63
2023/03/19 10:59:00;;;;;;;24.88;17.83;;;12.70;99.90;;;;;;4954226;28;20532;-63
2023/03/19 11:01:47;;;;;;;24.17;18.47;;;12.70;99.90;;;;;;4950860;28;20050;-63
2023/03/19 11:04:16;;;;;;;24.63;18.67;;;12.60;99.90;;;;;;4937967;28;20340;-63
2023/03/19 11:07:16;;;;;;;24.48;18.45;;;12.50;99.90;;;;;;4945601;28;20413;-63
2023/03/19 11:09:48;;;;;;;23.70;18.20;;;12.40;99.90;;;;;;4934661;28;20050;-63
2023/03/19 11:12:30;;;;;;;25.45;18.52;;;12.30;99.90;;;;;;4964530;28;20062;-63
2023/03/19 11:14:57;;;;;;;27.40;20.08;;;12.30;99.90;;;;;;4950228;28;20047;-63
2023/03/19 11:17:46;;;;;;;31.85;22.27;;;12.20;99.90;;;;;;4952173;28;20160;-64
2023/03/19 11:20:42;;;;;;;31.08;22.15;;;12.10;99.90;;;;;;4953190;28;20054;-63
2023/03/19 11:23:15;;;;;;;27.20;20.25;;;12.00;99.90;;;;;;4932072;28;20046;-63
2023/03/19 11:25:48;;;;;;;28.65;20.58;;;12.00;99.90;;;;;;4941247;28;20050;-63
2023/03/19 11:28:16;;;;;;;23.73;17.67;;;11.90;99.90;;;;;;4957576;28;20121;-63
2023/03/19 11:31:00;;;;;;;24.10;17.77;;;11.90;99.90;;;;;;4950426;28;20120;-63
2023/03/19 11:33:37;;;;;;;27.92;19.30;;;12.00;99.90;;;;;;4957787;28;20141;-63
2023/03/19 11:36:27;;;;;;;27.08;19.42;;;12.00;99.90;;;;;;4953871;28;20046;-63
2023/03/19 11:38:59;;;;;;;32.58;21.05;;;12.10;99.90;;;;;;4956840;28;20046;-63
2023/03/19 11:42:00;;;;;;;31.08;21.83;;;12.20;99.90;;;;;;4920679;28;20054;-64
2023/03/19 11:44:34;;;;;;;32.05;22.05;;;12.30;99.90;;;;;;4948625;28;20053;-62
2023/03/19 11:47:10;;;;;;;31.40;21.65;;;12.30;99.90;;;;;;4953969;28;20058;-63
2023/03/19 11:50:19;;;;;;;30.02;21.63;;;12.30;99.90;;;;;;4960269;28;20125;-63
2023/03/19 11:53:22;;;;;;;25.80;18.92;;;12.40;99.90;;;;;;4918639;28;20533;-63
2023/03/19 11:56:26;;;;;;;21.20;16.35;;;12.40;99.90;;;;;;4956786;28;20073;-63
2023/03/19 11:58:52;;;;;;;22.15;16.77;;;12.40;99.90;;;;;;4933925;28;20050;-63
2023/03/19 12:01:58;;;;;;;22.92;16.45;;;12.40;99.90;;;;;;4923764;28;21994;-62
2023/03/19 12:04:27;;;;;;;22.98;16.05;;;12.30;99.90;;;;;;4953512;28;20050;-63
2023/03/19 12:07:24;;;;;;;21.75;15.82;;;12.30;99.90;;;;;;4937051;28;20042;-63
2023/03/19 12:10:14;;;;;;;20.77;14.50;;;12.20;99.90;;;;;;4951898;28;20049;-63
2023/03/19 12:12:56;;;;;;;19.50;15.18;;;12.20;99.90;;;;;;4952246;28;20580;-62
2023/03/19 12:15:51;;;;;;;21.13;14.90;;;12.10;99.90;;;;;;4954999;28;20504;-63
2023/03/19 12:18:51;;;;;;;20.75;14.88;;;12.10;99.90;;;;;;4953425;28;20042;-62
2023/03/19 12:21:25;;;;;;;22.60;16.23;;;12.10;99.90;;;;;;4953343;28;20405;-62
2023/03/19 12:24:10;;;;;;;21.15;15.07;;;12.00;99.90;;;;;;4944786;28;20054;-62
2023/03/19 12:27:03;;;;;;;25.77;17.63;;;12.00;99.90;;;;;;4955174;28;20457;-62
2023/03/19 12:29:59;;;;;;;26.15;17.60;;;12.00;99.90;;;;;;4937985;28;20162;-63
2023/03/19 12:32:49;;;;;;;26.65;18.70;;;12.00;99.90;;;;;;4927892;28;20046;-63
2023/03/19 12:35:25;;;;;;;27.83;18.77;;;11.90;99.90;;;;;;4936014;28;20046;-62
2023/03/19 12:38:16;;;;;;;27.05;18.63;;;11.80;99.90;;;;;;4953371;28;20046;-62
2023/03/19 12:41:17;;;;;;;25.40;17.60;;;11.90;99.90;;;;;;4952977;28;20038;-63
2023/03/19 12:44:12;;;;;;;27.27;18.77;;;11.90;99.90;;;;;;4946355;28;20494;-63
2023/03/19 12:47:12;;;;;;;29.63;19.70;;;11.90;99.90;;;;;;4942993;28;20718;-62